createdAt,value
2022-09-12T00:03:28.368Z,2.90
2022-09-12T00:08:31.193Z,2.80
2022-09-12T00:13:37.320Z,2.80
2022-09-12T00:18:47.063Z,3.00
2022-09-12T00:23:50.912Z,2.80
2022-09-12T00:28:54.204Z,3.10
2022-09-12T00:34:00.851Z,3.00
2022-09-12T00:39:04.894Z,2.30
2022-09-12T00:44:10.670Z,3.00
2022-09-12T00:49:24.300Z,2.80
2022-09-12T00:54:32.928Z,2.70
2022-09-12T00:59:51.345Z,2.90
2022-09-12T01:04:54.395Z,3.10
2022-09-12T01:09:57.589Z,2.50
2022-09-12T01:15:01.006Z,3.00
2022-09-12T01:20:20.713Z,3.20
2022-09-12T01:25:50.396Z,2.70
2022-09-12T01:30:54.416Z,2.70
2022-09-12T01:36:13.841Z,2.60
2022-09-12T01:41:25.780Z,2.80
2022-09-12T01:46:44.028Z,2.80
2022-09-12T01:51:58.989Z,2.80
2022-09-12T01:57:08.958Z,2.60
2022-09-12T02:02:40.837Z,3.00
2022-09-12T02:07:49.648Z,2.60
2022-09-12T02:13:08.593Z,2.70
2022-09-12T02:18:18.766Z,2.80
2022-09-12T02:23:26.655Z,2.90
2022-09-12T02:28:40.638Z,2.50
2022-09-12T02:34:02.161Z,3.10
2022-09-12T02:39:05.136Z,2.60
2022-09-12T02:44:07.979Z,2.60
2022-09-12T02:49:11.067Z,2.50
2022-09-12T02:54:16.635Z,2.80
2022-09-12T02:59:23.628Z,3.00
2022-09-12T03:04:36.157Z,2.70
2022-09-12T03:10:03.762Z,2.70
2022-09-12T03:15:27.799Z,2.60
2022-09-12T03:20:50.988Z,2.80
2022-09-12T03:26:07.519Z,3.10
2022-09-12T03:31:15.800Z,2.80
2022-09-12T03:36:25.643Z,2.50
2022-09-12T03:41:29.442Z,2.80
2022-09-12T03:46:32.992Z,2.40
2022-09-12T03:51:36.106Z,2.50
2022-09-12T03:56:40.536Z,2.40
2022-09-12T04:01:43.232Z,2.70
2022-09-12T04:06:45.989Z,2.60
2022-09-12T04:11:48.717Z,2.80
2022-09-12T04:16:51.540Z,2.50
2022-09-12T04:21:54.377Z,2.50
2022-09-12T04:26:57.318Z,2.80
2022-09-12T04:32:00.082Z,2.50
2022-09-12T04:37:03.392Z,2.80
2022-09-12T04:42:06.374Z,2.40
2022-09-12T04:47:09.150Z,2.60
2022-09-12T04:52:11.922Z,2.20
2022-09-12T04:57:14.648Z,2.80
2022-09-12T05:02:18.260Z,3.10
2022-09-12T05:07:21.103Z,2.50
2022-09-12T05:12:24.016Z,3.00
2022-09-12T05:17:29.782Z,2.60
2022-09-12T05:22:34.620Z,2.80
2022-09-12T05:27:37.361Z,2.20
2022-09-12T05:32:40.091Z,2.60
2022-09-12T05:37:43.417Z,2.40
2022-09-12T05:42:46.248Z,2.30
2022-09-12T05:47:49.976Z,2.70
2022-09-12T05:52:52.766Z,2.80
2022-09-12T05:57:56.184Z,2.70
2022-09-12T06:03:01.496Z,2.60
2022-09-12T06:08:07.179Z,3.00
2022-09-12T06:13:09.990Z,2.90
2022-09-12T06:18:13.163Z,7.30
2022-09-12T06:23:16.044Z,4.70
2022-09-12T06:28:21.288Z,3.40
2022-09-12T06:33:24.174Z,3.90
2022-09-12T06:38:26.947Z,2.90
2022-09-12T06:43:29.807Z,3.00
2022-09-12T06:48:32.656Z,2.50
2022-09-12T06:53:40.635Z,2.30
2022-09-12T06:58:43.876Z,2.60
2022-09-12T07:03:55.927Z,2.40
2022-09-12T07:09:00.234Z,2.40
2022-09-12T07:14:06.370Z,2.90
2022-09-12T07:19:12.080Z,2.70
2022-09-12T07:24:15.019Z,2.70
2022-09-12T07:29:36.872Z,2.50
2022-09-12T07:34:40.956Z,2.30
2022-09-12T07:39:43.792Z,2.20
2022-09-12T07:44:49.101Z,2.70
2022-09-12T07:49:52.767Z,2.10
2022-09-12T07:54:56.793Z,2.20
2022-09-12T08:00:04.092Z,2.20
2022-09-12T08:05:07.643Z,2.50
2022-09-12T08:10:10.719Z,2.70
2022-09-12T08:15:15.487Z,2.10
2022-09-12T08:20:24.281Z,2.50
2022-09-12T08:25:29.619Z,2.20
2022-09-12T08:30:32.537Z,2.00
2022-09-12T08:35:39.762Z,3.70
2022-09-12T08:40:59.324Z,2.10
2022-09-12T08:46:09.165Z,2.20
2022-09-12T08:51:16.083Z,2.20
2022-09-12T08:56:19.456Z,2.10
2022-09-12T09:01:41.536Z,2.50
2022-09-12T09:07:01.343Z,2.20
2022-09-12T09:12:17.913Z,2.10
2022-09-12T09:17:33.954Z,2.10
2022-09-12T09:22:42.734Z,2.70
2022-09-12T09:28:13.765Z,2.50
2022-09-12T09:33:23.863Z,1.90
2022-09-12T09:38:48.623Z,2.30
2022-09-12T09:43:52.059Z,2.10
2022-09-12T09:49:02.807Z,2.10
2022-09-12T09:54:11.388Z,2.30
2022-09-12T09:59:27.983Z,2.10
2022-09-12T10:04:39.240Z,2.60
2022-09-12T10:10:08.136Z,1.90
2022-09-12T10:15:22.000Z,2.30
2022-09-12T10:20:44.349Z,2.20
2022-09-12T10:25:55.225Z,2.30
2022-09-12T10:31:03.370Z,2.40
2022-09-12T10:36:07.995Z,1.90
2022-09-12T10:41:12.402Z,1.70
2022-09-12T10:46:18.552Z,2.00
2022-09-12T10:51:24.439Z,2.30
2022-09-12T10:56:39.580Z,1.90
2022-09-12T11:01:46.073Z,2.00
2022-09-12T11:06:58.062Z,2.00
2022-09-12T11:12:14.583Z,2.00
2022-09-12T11:17:26.142Z,2.50
2022-09-12T11:22:46.734Z,2.00
2022-09-12T11:27:55.449Z,2.80
2022-09-12T11:33:26.640Z,2.30
2022-09-12T11:38:32.057Z,2.10
2022-09-12T11:43:43.903Z,2.20
2022-09-12T11:48:55.969Z,1.80
2022-09-12T11:54:35.786Z,1.70
2022-09-12T12:00:00.562Z,1.90
2022-09-12T12:10:42.382Z,2.10
2022-09-12T12:15:50.610Z,2.00
2022-09-12T12:20:55.811Z,1.70
2022-09-12T12:26:05.438Z,2.10
2022-09-12T12:31:11.230Z,1.70
2022-09-12T12:36:39.276Z,1.70
2022-09-12T12:41:45.666Z,2.00
2022-09-12T12:47:19.988Z,1.70
2022-09-12T12:52:25.615Z,1.80
2022-09-12T12:57:41.774Z,1.90
2022-09-12T13:03:06.734Z,1.50
2022-09-12T13:13:34.315Z,1.50
2022-09-12T13:19:08.737Z,1.70
2022-09-12T13:24:17.295Z,1.80
2022-09-12T13:29:28.336Z,1.80
2022-09-12T13:34:37.292Z,1.60
2022-09-12T13:45:15.986Z,1.50
2022-09-12T13:50:23.931Z,1.60
2022-09-12T13:55:34.338Z,1.50
2022-09-12T14:00:37.998Z,2.30
2022-09-12T14:05:45.073Z,1.90
2022-09-12T14:10:50.538Z,1.70
2022-09-12T14:15:55.876Z,1.80
2022-09-12T14:21:12.855Z,1.60
2022-09-12T14:26:17.868Z,1.70
2022-09-12T14:31:24.801Z,1.80
2022-09-12T14:36:31.213Z,1.70
2022-09-12T14:46:41.673Z,1.60
2022-09-12T14:51:51.710Z,1.80
2022-09-12T14:56:58.535Z,1.50
2022-09-12T15:02:22.407Z,1.80
2022-09-12T15:07:42.230Z,1.60
2022-09-12T15:12:45.205Z,1.70
2022-09-12T15:17:48.191Z,1.70
2022-09-12T15:22:52.342Z,1.70
2022-09-12T15:27:56.539Z,1.60
2022-09-12T15:33:00.199Z,1.70
2022-09-12T15:38:03.006Z,1.80
2022-09-12T15:43:06.225Z,1.60
2022-09-12T15:48:09.787Z,1.60
2022-09-12T15:53:17.156Z,1.60
2022-09-12T15:58:20.130Z,1.50
2022-09-12T16:03:26.531Z,1.70
2022-09-12T16:08:31.603Z,1.60
2022-09-12T16:13:34.389Z,1.80
2022-09-12T16:18:40.037Z,1.60
2022-09-12T16:23:47.222Z,2.10
2022-09-12T16:28:58.590Z,2.20
2022-09-12T16:34:01.325Z,2.10
2022-09-12T16:39:04.238Z,2.10
2022-09-12T16:44:08.172Z,2.50
2022-09-12T16:49:12.093Z,2.30
2022-09-12T16:54:15.804Z,2.60
2022-09-12T16:59:18.524Z,2.40
2022-09-12T17:04:23.558Z,3.20
2022-09-12T17:09:28.235Z,2.90
2022-09-12T17:14:31.474Z,3.70
2022-09-12T17:19:34.205Z,3.20
2022-09-12T17:24:36.980Z,3.20
2022-09-12T17:29:39.734Z,3.60
2022-09-12T17:34:42.588Z,3.80
2022-09-12T17:39:46.442Z,3.80
2022-09-12T17:44:49.816Z,3.60
2022-09-12T17:50:01.681Z,3.50
2022-09-12T17:55:13.543Z,3.70
2022-09-12T18:00:16.792Z,5.20
2022-09-12T18:05:19.560Z,5.20
2022-09-12T18:10:22.526Z,4.80
2022-09-12T18:15:27.113Z,4.60
2022-09-12T18:20:30.613Z,4.60
2022-09-12T18:25:33.429Z,6.00
2022-09-12T18:30:36.168Z,7.20
2022-09-12T18:35:39.119Z,5.60
2022-09-12T18:40:41.862Z,4.20
2022-09-12T18:45:44.629Z,3.80
2022-09-12T18:50:47.634Z,3.40
2022-09-12T18:55:50.590Z,3.40
2022-09-12T19:00:53.530Z,3.70
2022-09-12T19:05:56.985Z,4.10
2022-09-12T19:11:01.873Z,3.90
2022-09-12T19:16:06.698Z,5.00
2022-09-12T19:21:15.180Z,5.30
2022-09-12T19:26:20.531Z,5.20
2022-09-12T19:31:24.642Z,5.30
2022-09-12T19:36:44.245Z,5.80
2022-09-12T19:41:48.387Z,5.40
2022-09-12T19:46:51.247Z,5.10
2022-09-12T19:51:54.172Z,5.60
2022-09-12T19:56:56.991Z,5.80
2022-09-12T20:02:00.083Z,6.80
2022-09-12T20:07:02.953Z,6.20
2022-09-12T20:12:05.876Z,6.40
2022-09-12T20:17:08.961Z,6.50
2022-09-12T20:22:11.643Z,7.70
2022-09-12T20:27:15.301Z,6.80
2022-09-12T20:32:18.741Z,7.40
2022-09-12T20:37:21.510Z,7.50
2022-09-12T20:42:24.219Z,7.80
2022-09-12T20:47:27.001Z,8.80
2022-09-12T20:52:29.707Z,13.70
2022-09-12T20:57:32.464Z,22.60
2022-09-12T21:02:35.245Z,16.00
2022-09-12T21:07:38.109Z,13.70
2022-09-12T21:12:40.773Z,12.10
2022-09-12T21:17:43.851Z,8.40
2022-09-12T21:22:46.646Z,8.90
2022-09-12T21:27:49.407Z,8.20
2022-09-12T21:32:52.114Z,7.80
2022-09-12T21:37:54.832Z,8.80
2022-09-12T21:42:58.438Z,7.80
2022-09-12T21:48:01.628Z,8.20
2022-09-12T21:53:04.329Z,7.70
2022-09-12T21:58:07.060Z,7.20
2022-09-12T22:03:10.906Z,7.20
2022-09-12T22:08:13.640Z,7.20
2022-09-12T22:13:16.360Z,6.80
2022-09-12T22:18:19.549Z,7.40
2022-09-12T22:23:45.463Z,8.00
2022-09-12T22:28:49.267Z,6.60
2022-09-12T22:33:54.818Z,6.40
2022-09-12T22:38:57.849Z,6.90
2022-09-12T22:44:00.536Z,8.90
2022-09-12T22:49:04.879Z,8.40
2022-09-12T22:54:09.540Z,8.50
2022-09-12T22:59:12.244Z,7.40
2022-09-12T23:04:14.969Z,7.00
2022-09-12T23:09:18.097Z,6.50
2022-09-12T23:14:20.809Z,5.90
2022-09-12T23:19:23.577Z,6.50
2022-09-12T23:24:26.224Z,5.70
2022-09-12T23:29:28.892Z,6.40
2022-09-12T23:34:32.782Z,5.90
2022-09-12T23:39:35.517Z,6.40
2022-09-12T23:44:38.197Z,6.00
2022-09-12T23:49:41.015Z,6.70
2022-09-12T23:54:43.685Z,6.80
2022-09-12T23:59:46.413Z,6.30
